Skip Navigation Links Skip Navigation Links

Current Weather

Cartersville, Ga.

For information only: do not use for flight planning or navigation.
Latest weather
Observation time Tuesday, January 26, 2021 5:53 PM EST
Local time Tuesday, January 26, 2021 7:03 PM EST
Flight conditions Visual Meteorological Conditions
Winds
Wind speed calm
Visibility 10 mi.
Sky condition
Ceiling 10,000 ft. overcast
Cloud layer overcast 10,000 ft.
Temperature 63°F
Dewpoint 45°F
Altimeter 29.94 in.Hg
Derived measurements
Relative humidity 52%
Density altitude 1144 ft.
Sea-level pressure 29.92 in.Hg
Remarks
Fully automated report.
Automated weather observing station with precipitation discriminator.
METAR KVPC 262253Z AUTO 00000KT 10SM OVC100 17/07 A2994 RMK AO2 SLP131 T01720072

Settings

Location code

InnerDrive.Weather 4.0.6770.0 Release CLR 4.0.30319.42000
Copyright ©2018 Inner Drive Technology. All rights reserved. Portions Copyright ©1986-2018 David Braverman.

Find weather

Site navigation


Skip Navigation Links

Place info

Page info

PayPal - The safer, easier way to pay online!

Return home.

Copyright ©2021 Inner Drive Technology. Purveyors of fine, hand-crafted computer software. Page printed 2021-01-27T00:03:11 UTC.